首页
METAR-TAF:

METAR-TAF

机场 :

阿纳姆, 荷兰

纬度: 52-04N, 经度: 005-53E, 海拔: 48米

当前天气观测

该预报发布于28分钟前的02:55 UTC
风速3节,风向多变
温度 17°C
湿度 82%
气压 1008 hPa
能见度10公里或以上

METAR: EHDL 190255Z AUTO VRB03KT 9999 NCD 17/14 Q1008 BLU

时间: 05:23 (03:23 UTC)


TAF: 丢失

超过4000个机场的气象观测和天气预报(METAR&TAF报告)。

可查询的气象台以黄色和红色小点在地图上表示。

将鼠标移到小点上方,可查看气象台名称。

然后点击查看天气观测和预报。

如需切换地图:点击带黑十字的绿色按钮放大地图;点击带横线的绿色按钮缩小地图;或者点击绿色箭头查看邻近地区的地图。


METAR-TAF: